Time;durP1;ratioP1;P1;durP2;ratioP2;P2;SDS_P1;SDS_P2;PMS_P1;PMS_P2;Temp;Humidity;BMP_temperature;BMP_pressure;BME280_temperature;BME280_humidity;BME280_pressure;Samples;Min_cycle;Max_cycle;Signal;HPM_P1;HPM_P2
2022/04/21 00:00:43;;;;;;;;;23.75;19.50;;;;;;;;5055339;28;47161;-70
2022/04/21 00:03:08;;;;;;;;;14.50;13.75;;;;;;;;5055639;28;47299;-70
2022/04/21 00:05:34;;;;;;;;;18.50;14.50;;;;;;;;5055845;28;45535;-70
2022/04/21 00:07:59;;;;;;;;;11.75;11.75;;;;;;;;5057911;28;45332;-69
2022/04/21 00:10:25;;;;;;;;;12.00;11.75;;;;;;;;5055170;28;45446;-69
2022/04/21 00:12:50;;;;;;;;;14.00;10.50;;;;;;;;5054889;28;45424;-70
2022/04/21 00:15:16;;;;;;;;;17.25;14.75;;;;;;;;5055602;28;45525;-69
2022/04/21 00:17:42;;;;;;;;;19.50;15.50;;;;;;;;5055725;28;45431;-70
2022/04/21 00:20:07;;;;;;;;;14.00;12.50;;;;;;;;5056996;28;46387;-70
2022/04/21 00:25:16;;;;;;;;;15.25;9.75;;;;;;;;5054606;28;45361;-70
2022/04/21 00:27:42;;;;;;;;;12.50;11.50;;;;;;;;5054919;28;45459;-70
2022/04/21 00:30:09;;;;;;;;;7.00;7.00;;;;;;;;5055097;28;47183;-70
2022/04/21 00:32:35;;;;;;;;;12.25;9.25;;;;;;;;5054251;28;45730;-70
2022/04/21 00:35:00;;;;;;;;;11.50;10.00;;;;;;;;5057259;28;45430;-69
2022/04/21 00:37:26;;;;;;;;;10.25;8.25;;;;;;;;5055126;28;45322;-70
2022/04/21 00:39:51;;;;;;;;;10.25;9.00;;;;;;;;5054766;28;46179;-70
2022/04/21 00:42:16;;;;;;;;;8.50;7.75;;;;;;;;5055187;28;45352;-69
2022/04/21 00:44:41;;;;;;;;;10.00;10.00;;;;;;;;5055447;28;45538;-70
2022/04/21 00:47:07;;;;;;;;;9.75;8.75;;;;;;;;5056700;28;45403;-70
2022/04/21 00:49:33;;;;;;;;;16.25;14.25;;;;;;;;5054092;28;46962;-70
2022/04/21 00:52:00;;;;;;;;;9.00;9.00;;;;;;;;5054539;28;45545;-70
2022/04/21 00:54:25;;;;;;;;;10.50;10.50;;;;;;;;5054483;28;45391;-69
2022/04/21 00:56:51;;;;;;;;;7.75;7.75;;;;;;;;5055305;28;45531;-70
2022/04/21 00:59:16;;;;;;;;;10.00;9.00;;;;;;;;5055293;28;46069;-69
2022/04/21 01:04:26;;;;;;;;;7.50;7.00;;;;;;;;5054777;28;45549;-70
2022/04/21 01:06:52;;;;;;;;;10.00;10.00;;;;;;;;5054579;28;45589;-69
2022/04/21 01:09:17;;;;;;;;;13.00;12.00;;;;;;;;5054101;28;45485;-70
2022/04/21 01:11:42;;;;;;;;;12.25;9.25;;;;;;;;5054523;28;45271;-68
2022/04/21 01:14:08;;;;;;;;;10.25;9.00;;;;;;;;5056027;28;45405;-68
2022/04/21 01:16:33;;;;;;;;;9.25;9.25;;;;;;;;5055192;28;45601;-68
2022/04/21 01:18:59;;;;;;;;;13.25;11.25;;;;;;;;5052442;28;45960;-69
2022/04/21 01:21:24;;;;;;;;;8.25;8.25;;;;;;;;5054214;28;45287;-68
2022/04/21 01:23:50;;;;;;;;;8.00;8.00;;;;;;;;5054356;28;45842;-68
2022/04/21 01:26:16;;;;;;;;;11.00;10.00;;;;;;;;5039577;28;45421;-69
2022/04/21 01:28:41;;;;;;;;;8.00;6.50;;;;;;;;5055426;28;47178;-68
2022/04/21 01:31:06;;;;;;;;;17.00;12.25;;;;;;;;5054128;28;45475;-68
2022/04/21 01:33:32;;;;;;;;;10.00;9.00;;;;;;;;5054249;28;45555;-68
2022/04/21 01:35:57;;;;;;;;;7.50;7.50;;;;;;;;5054503;28;45281;-69
2022/04/21 01:41:09;;;;;;;;;9.50;8.50;;;;;;;;5051906;28;45315;-68
2022/04/21 01:43:34;;;;;;;;;9.00;8.25;;;;;;;;5053607;28;45655;-70
2022/04/21 01:45:59;;;;;;;;;11.25;9.25;;;;;;;;5054055;28;45502;-69
2022/04/21 01:48:25;;;;;;;;;11.00;11.00;;;;;;;;5053641;28;47330;-70
2022/04/21 01:50:50;;;;;;;;;10.75;9.00;;;;;;;;5054360;28;45549;-69
2022/04/21 01:53:15;;;;;;;;;9.75;9.75;;;;;;;;5054813;28;45414;-70
2022/04/21 01:55:40;;;;;;;;;9.50;8.00;;;;;;;;5055532;28;45413;-70
2022/04/21 01:58:06;;;;;;;;;10.75;9.75;;;;;;;;5053711;28;45686;-69
2022/04/21 02:00:31;;;;;;;;;7.50;7.00;;;;;;;;5053963;28;45498;-70
2022/04/21 02:02:56;;;;;;;;;8.75;8.75;;;;;;;;5054402;28;45486;-70
2022/04/21 02:05:21;;;;;;;;;8.50;8.50;;;;;;;;5054215;28;45490;-69
2022/04/21 02:07:47;;;;;;;;;10.00;10.00;;;;;;;;5055463;28;45486;-69
2022/04/21 02:10:13;;;;;;;;;10.25;9.50;;;;;;;;5052321;28;45482;-70
2022/04/21 02:12:38;;;;;;;;;10.75;10.75;;;;;;;;5054012;28;45359;-70
2022/04/21 02:15:04;;;;;;;;;10.00;8.25;;;;;;;;5053446;28;45529;-69
2022/04/21 02:17:32;;;;;;;;;10.75;9.75;;;;;;;;5053626;28;45483;-70
2022/04/21 02:19:57;;;;;;;;;12.25;10.75;;;;;;;;5055613;28;45401;-69
2022/04/21 02:22:22;;;;;;;;;6.50;6.50;;;;;;;;5053003;28;45622;-70
2022/04/21 02:24:47;;;;;;;;;8.25;8.25;;;;;;;;5053029;28;45272;-69
2022/04/21 02:27:13;;;;;;;;;9.75;9.75;;;;;;;;5036945;28;47262;-70
2022/04/21 02:29:38;;;;;;;;;10.75;8.75;;;;;;;;5035437;28;45399;-69
2022/04/21 02:32:04;;;;;;;;;10.25;8.00;;;;;;;;5056043;28;45690;-70
2022/04/21 02:34:30;;;;;;;;;9.75;8.25;;;;;;;;5052302;28;45314;-70
2022/04/21 02:36:55;;;;;;;;;9.50;8.25;;;;;;;;5052743;28;45365;-69
2022/04/21 02:39:21;;;;;;;;;8.75;8.25;;;;;;;;5053397;28;45473;-69
2022/04/21 02:41:46;;;;;;;;;8.00;8.00;;;;;;;;5053501;28;45451;-70
2022/04/21 02:44:11;;;;;;;;;12.50;12.50;;;;;;;;5055233;28;45292;-70
2022/04/21 02:46:36;;;;;;;;;8.50;8.50;;;;;;;;5054134;28;46090;-69
2022/04/21 02:49:02;;;;;;;;;8.75;8.25;;;;;;;;5052728;28;45584;-70
2022/04/21 02:51:30;;;;;;;;;11.50;9.00;;;;;;;;5047385;28;45875;-70
2022/04/21 02:59:24;;;;;;;;;10.25;9.00;;;;;;;;5052300;28;45454;-69
2022/04/21 03:01:50;;;;;;;;;11.50;10.00;;;;;;;;5054847;28;45236;-70
2022/04/21 03:04:15;;;;;;;;;9.00;9.00;;;;;;;;5053108;28;45275;-69
2022/04/21 03:06:40;;;;;;;;;10.00;8.50;;;;;;;;5052473;28;46611;-69
2022/04/21 03:09:05;;;;;;;;;14.75;11.75;;;;;;;;5052770;28;45542;-70
2022/04/21 03:11:30;;;;;;;;;10.00;8.00;;;;;;;;5052936;28;45510;-70
2022/04/21 03:13:55;;;;;;;;;9.75;9.75;;;;;;;;5054746;28;45184;-69
2022/04/21 03:16:21;;;;;;;;;12.50;11.75;;;;;;;;5052479;28;45449;-70
2022/04/21 03:18:46;;;;;;;;;9.00;9.00;;;;;;;;5039086;28;45402;-69
2022/04/21 03:26:39;;;;;;;;;9.75;9.75;;;;;;;;5040691;28;45381;-69
2022/04/21 03:29:04;;;;;;;;;10.50;9.50;;;;;;;;5058350;28;45221;-69
2022/04/21 03:31:29;;;;;;;;;10.25;7.00;;;;;;;;5056399;28;45461;-69
2022/04/21 03:33:55;;;;;;;;;13.25;10.75;;;;;;;;5055632;28;45419;-69
2022/04/21 03:36:21;;;;;;;;;11.50;10.00;;;;;;;;5055705;28;45254;-69
2022/04/21 03:38:46;;;;;;;;;13.50;12.00;;;;;;;;5055828;28;45430;-69
2022/04/21 03:41:11;;;;;;;;;9.00;9.00;;;;;;;;5057268;28;45283;-70
2022/04/21 03:43:36;;;;;;;;;13.50;10.50;;;;;;;;5056342;28;45300;-68
2022/04/21 03:46:02;;;;;;;;;16.25;14.25;;;;;;;;5055634;28;46193;-68
2022/04/21 03:48:27;;;;;;;;;12.00;11.25;;;;;;;;5055095;28;45450;-71
2022/04/21 03:50:53;;;;;;;;;11.50;11.00;;;;;;;;5056375;28;45371;-69
2022/04/21 03:53:18;;;;;;;;;12.25;12.25;;;;;;;;5056257;28;45456;-69
2022/04/21 03:55:43;;;;;;;;;14.00;14.00;;;;;;;;5057177;28;46032;-70
2022/04/21 03:58:08;;;;;;;;;10.25;10.25;;;;;;;;5055343;28;45760;-70
2022/04/21 04:00:33;;;;;;;;;14.25;11.50;;;;;;;;5055437;28;45326;-70
2022/04/21 04:02:59;;;;;;;;;13.00;12.00;;;;;;;;5036797;28;45739;-70
2022/04/21 04:05:24;;;;;;;;;14.50;13.00;;;;;;;;5055341;28;46338;-70
2022/04/21 04:10:52;;;;;;;;;11.00;10.25;;;;;;;;5053141;28;45403;-70
2022/04/21 04:13:17;;;;;;;;;14.50;14.50;;;;;;;;5044147;28;45299;-69
2022/04/21 04:15:47;;;;;;;;;14.75;10.50;;;;;;;;5054585;28;46914;-69
2022/04/21 04:18:12;;;;;;;;;14.25;12.00;;;;;;;;5054499;28;45530;-69
2022/04/21 04:20:37;;;;;;;;;11.00;11.00;;;;;;;;5054675;28;45386;-70
2022/04/21 04:23:02;;;;;;;;;12.75;12.25;;;;;;;;5056797;28;45338;-70
2022/04/21 04:25:28;;;;;;;;;11.00;10.25;;;;;;;;5041381;28;47301;-70
2022/04/21 04:27:53;;;;;;;;;13.00;12.00;;;;;;;;5054755;28;45522;-70
2022/04/21 04:30:18;;;;;;;;;13.00;12.00;;;;;;;;5054712;28;45371;-71
2022/04/21 04:32:43;;;;;;;;;17.00;14.00;;;;;;;;5053627;28;45578;-70
2022/04/21 04:35:10;;;;;;;;;13.25;13.25;;;;;;;;5055573;28;46849;-68
2022/04/21 04:37:35;;;;;;;;;12.75;11.75;;;;;;;;5055663;28;45243;-69
2022/04/21 04:40:00;;;;;;;;;12.50;11.50;;;;;;;;5054227;28;45467;-69
2022/04/21 04:42:26;;;;;;;;;11.50;10.25;;;;;;;;5054568;28;45240;-69
2022/04/21 04:47:36;;;;;;;;;16.75;15.00;;;;;;;;5038785;28;45522;-68
2022/04/21 04:50:01;;;;;;;;;14.50;13.50;;;;;;;;5057666;28;45662;-68
2022/04/21 04:52:26;;;;;;;;;39.75;32.75;;;;;;;;5062122;27;45371;-69
2022/04/21 04:54:52;;;;;;;;;13.75;11.75;;;;;;;;5059442;28;46302;-70
2022/04/21 04:57:17;;;;;;;;;19.75;18.00;;;;;;;;5056792;28;45370;-71
2022/04/21 04:59:42;;;;;;;;;15.75;15.50;;;;;;;;5053644;28;45501;-70
2022/04/21 05:02:07;;;;;;;;;18.00;18.00;;;;;;;;5054793;28;45530;-69
2022/04/21 05:04:32;;;;;;;;;18.25;15.00;;;;;;;;5054307;28;45280;-69
2022/04/21 05:06:59;;;;;;;;;19.50;12.50;;;;;;;;5052900;27;45588;-69
2022/04/21 05:09:25;;;;;;;;;12.75;12.25;;;;;;;;5055993;28;45542;-70
2022/04/21 05:11:51;;;;;;;;;14.00;14.00;;;;;;;;5053760;28;45467;-71
2022/04/21 05:14:17;;;;;;;;;12.00;11.75;;;;;;;;5054206;28;46474;-70
2022/04/21 05:16:42;;;;;;;;;16.75;14.75;;;;;;;;5055078;28;45702;-70
2022/04/21 05:19:08;;;;;;;;;43.50;36.50;;;;;;;;5053428;28;45359;-71
2022/04/21 05:21:34;;;;;;;;;28.50;21.00;;;;;;;;5054043;28;45398;-71
2022/04/21 05:24:00;;;;;;;;;17.50;15.50;;;;;;;;5051940;28;46112;-72
2022/04/21 05:26:25;;;;;;;;;11.75;11.50;;;;;;;;5053490;28;45286;-73
2022/04/21 05:28:51;;;;;;;;;16.75;16.00;;;;;;;;5055664;28;45475;-71
2022/04/21 05:31:17;;;;;;;;;16.00;13.00;;;;;;;;5053106;28;45435;-70
2022/04/21 05:33:42;;;;;;;;;15.25;13.25;;;;;;;;5053066;28;46350;-69
2022/04/21 05:36:08;;;;;;;;;13.25;10.75;;;;;;;;5052932;28;45471;-69
2022/04/21 05:38:34;;;;;;;;;14.75;11.75;;;;;;;;5053956;28;45649;-70
2022/04/21 05:40:59;;;;;;;;;11.00;11.00;;;;;;;;5060825;28;45412;-70
2022/04/21 05:43:28;;;;;;;;;13.00;11.50;;;;;;;;5053813;28;46419;-68
2022/04/21 05:45:53;;;;;;;;;15.00;11.75;;;;;;;;5051247;28;45470;-69
2022/04/21 05:48:18;;;;;;;;;12.00;10.25;;;;;;;;5052889;28;45837;-72
2022/04/21 05:50:45;;;;;;;;;17.00;16.50;;;;;;;;5053010;28;45332;-71
2022/04/21 05:53:14;;;;;;;;;16.25;15.25;;;;;;;;5053527;28;45552;-71
2022/04/21 05:55:39;;;;;;;;;12.50;11.25;;;;;;;;5053766;28;45456;-71
2022/04/21 05:58:04;;;;;;;;;16.00;14.00;;;;;;;;5052169;28;45376;-71
2022/04/21 06:00:30;;;;;;;;;16.00;12.00;;;;;;;;5052507;28;45490;-72
2022/04/21 06:02:55;;;;;;;;;17.50;12.75;;;;;;;;5052178;28;45950;-72
2022/04/21 06:05:20;;;;;;;;;16.00;16.00;;;;;;;;5052206;28;45468;-72
2022/04/21 06:07:46;;;;;;;;;16.00;14.25;;;;;;;;5054050;28;45439;-72
2022/04/21 06:10:11;;;;;;;;;13.00;11.25;;;;;;;;5051833;28;45625;-72
2022/04/21 06:12:36;;;;;;;;;11.00;11.00;;;;;;;;5051850;28;45741;-71
2022/04/21 06:15:02;;;;;;;;;12.50;12.50;;;;;;;;5050997;28;45409;-71
2022/04/21 06:17:27;;;;;;;;;16.50;14.00;;;;;;;;5034386;28;45316;-73
2022/04/21 06:19:52;;;;;;;;;12.75;11.75;;;;;;;;5054110;28;45285;-73
2022/04/21 06:22:17;;;;;;;;;16.25;14.00;;;;;;;;5051899;28;46823;-70
2022/04/21 06:24:43;;;;;;;;;17.00;14.00;;;;;;;;5038195;28;45821;-72
2022/04/21 06:27:08;;;;;;;;;18.75;17.00;;;;;;;;5052551;28;45494;-72
2022/04/21 06:29:33;;;;;;;;;19.00;15.00;;;;;;;;5052005;28;45485;-72
2022/04/21 06:31:59;;;;;;;;;17.00;14.75;;;;;;;;5054184;28;46094;-73
2022/04/21 06:34:24;;;;;;;;;17.25;16.00;;;;;;;;5052061;28;45269;-72
2022/04/21 06:36:49;;;;;;;;;15.00;13.25;;;;;;;;5052428;28;45421;-71
2022/04/21 06:39:14;;;;;;;;;15.75;15.00;;;;;;;;5036525;28;45481;-72
2022/04/21 06:41:40;;;;;;;;;14.50;14.00;;;;;;;;5051822;28;46246;-72
2022/04/21 06:49:33;;;;;;;;;17.00;14.75;;;;;;;;5051193;28;45276;-72
2022/04/21 06:51:58;;;;;;;;;14.50;13.00;;;;;;;;5051076;28;45979;-71
2022/04/21 06:54:23;;;;;;;;;29.75;26.00;;;;;;;;5050843;28;45397;-72
2022/04/21 06:56:48;;;;;;;;;15.75;15.50;;;;;;;;5050743;28;45459;-72
2022/04/21 06:59:17;;;;;;;;;14.75;14.00;;;;;;;;5051884;28;45371;-72
2022/04/21 07:01:42;;;;;;;;;48.75;35.50;;;;;;;;5052658;28;46418;-71
2022/04/21 07:04:07;;;;;;;;;29.25;22.00;;;;;;;;5051163;28;45437;-72
2022/04/21 07:06:33;;;;;;;;;20.50;18.50;;;;;;;;5051698;28;45328;-72
2022/04/21 07:08:58;;;;;;;;;38.00;25.25;;;;;;;;5051635;28;45388;-72
2022/04/21 07:11:23;;;;;;;;;28.00;19.25;;;;;;;;5050963;28;47020;-72
2022/04/21 07:13:48;;;;;;;;;35.50;22.75;;;;;;;;5053098;28;45723;-70
2022/04/21 07:16:14;;;;;;;;;15.75;14.50;;;;;;;;5051204;28;45777;-72
2022/04/21 07:18:39;;;;;;;;;17.00;12.75;;;;;;;;5053200;28;45501;-71
2022/04/21 07:21:07;;;;;;;;;23.00;18.50;;;;;;;;5052089;28;46303;-70
2022/04/21 07:23:33;;;;;;;;;30.50;26.00;;;;;;;;5035033;28;45438;-72
2022/04/21 07:25:58;;;;;;;;;22.25;19.25;;;;;;;;5054188;28;45344;-72
2022/04/21 07:28:24;;;;;;;;;16.00;14.75;;;;;;;;5051346;28;45974;-72
2022/04/21 07:30:49;;;;;;;;;21.75;18.00;;;;;;;;5051532;28;46497;-72
2022/04/21 07:33:16;;;;;;;;;21.25;16.75;;;;;;;;5051099;28;45507;-72
2022/04/21 07:35:41;;;;;;;;;26.75;18.75;;;;;;;;5051821;28;45379;-72
2022/04/21 07:38:07;;;;;;;;;24.75;23.00;;;;;;;;5053196;28;45502;-71
2022/04/21 07:40:32;;;;;;;;;16.50;14.50;;;;;;;;5049970;28;45388;-72
2022/04/21 07:42:58;;;;;;;;;16.00;14.00;;;;;;;;5051158;28;45508;-71
2022/04/21 07:45:23;;;;;;;;;24.00;19.50;;;;;;;;5051301;28;45360;-71
2022/04/21 07:47:48;;;;;;;;;18.75;16.75;;;;;;;;5051642;28;45495;-70
2022/04/21 07:50:14;;;;;;;;;18.50;16.25;;;;;;;;5052042;28;45194;-71
2022/04/21 07:55:24;;;;;;;;;16.00;12.25;;;;;;;;5050504;28;45463;-72
2022/04/21 07:57:51;;;;;;;;;19.00;15.25;;;;;;;;5050743;28;45514;-71
2022/04/21 08:00:16;;;;;;;;;10.25;10.25;;;;;;;;5050576;28;46042;-72
2022/04/21 08:02:43;;;;;;;;;13.25;13.00;;;;;;;;5050973;28;45333;-70
2022/04/21 08:05:09;;;;;;;;;14.50;13.00;;;;;;;;5052360;28;45354;-70
2022/04/21 08:07:35;;;;;;;;;12.00;12.00;;;;;;;;5051306;28;45205;-71
2022/04/21 08:10:01;;;;;;;;;16.00;15.00;;;;;;;;5052945;28;46130;-72
2022/04/21 08:12:26;;;;;;;;;17.50;15.25;;;;;;;;5053775;28;45464;-72
2022/04/21 08:14:51;;;;;;;;;13.75;12.25;;;;;;;;5054100;28;45410;-72
2022/04/21 08:17:16;;;;;;;;;18.00;16.00;;;;;;;;5054760;28;45265;-70
2022/04/21 08:19:42;;;;;;;;;14.25;14.25;;;;;;;;5055420;28;47212;-70
2022/04/21 08:22:07;;;;;;;;;14.50;12.50;;;;;;;;5054044;28;45516;-72
2022/04/21 08:32:45;;;;;;;;;16.50;15.00;;;;;;;;5039596;28;45289;-71
2022/04/21 08:35:13;;;;;;;;;17.75;16.25;;;;;;;;5054853;28;45320;-72
2022/04/21 08:37:39;;;;;;;;;14.75;14.75;;;;;;;;5054378;28;45380;-71
2022/04/21 08:40:05;;;;;;;;;15.00;14.25;;;;;;;;5052509;28;45569;-71
2022/04/21 08:42:31;;;;;;;;;15.25;15.25;;;;;;;;5053367;28;45556;-72
2022/04/21 08:44:59;;;;;;;;;14.50;14.50;;;;;;;;5053615;28;45439;-72
2022/04/21 08:47:28;;;;;;;;;21.25;18.50;;;;;;;;5053818;28;45414;-71
2022/04/21 08:49:55;;;;;;;;;33.00;31.75;;;;;;;;5055381;28;47037;-72
2022/04/21 08:52:21;;;;;;;;;24.50;24.00;;;;;;;;5052708;28;45363;-73
2022/04/21 08:54:46;;;;;;;;;21.25;18.75;;;;;;;;5053444;28;47913;-71
2022/04/21 08:57:12;;;;;;;;;13.50;9.75;;;;;;;;5054112;28;45490;-71
2022/04/21 08:59:37;;;;;;;;;22.00;18.75;;;;;;;;5053862;28;45630;-71
2022/04/21 09:02:02;;;;;;;;;24.75;20.00;;;;;;;;5042077;28;45308;-71
2022/04/21 09:04:30;;;;;;;;;22.50;16.00;;;;;;;;5053805;28;45538;-71
2022/04/21 09:06:55;;;;;;;;;17.00;15.00;;;;;;;;5053545;28;45469;-71
2022/04/21 09:09:24;;;;;;;;;13.25;11.75;;;;;;;;5053222;28;46286;-72
2022/04/21 09:11:53;;;;;;;;;19.50;15.75;;;;;;;;5054029;28;45555;-71
2022/04/21 09:14:20;;;;;;;;;17.75;13.00;;;;;;;;5053888;28;45284;-72
2022/04/21 09:16:46;;;;;;;;;12.50;12.50;;;;;;;;5053289;28;45224;-72
2022/04/21 09:19:12;;;;;;;;;20.50;16.00;;;;;;;;5052643;28;46306;-71
2022/04/21 09:21:38;;;;;;;;;13.00;13.00;;;;;;;;5052857;28;45370;-72
2022/04/21 09:24:19;;;;;;;;;16.00;12.50;;;;;;;;5052879;28;45388;-71
2022/04/21 09:26:45;;;;;;;;;16.25;13.00;;;;;;;;5039300;28;45404;-72
2022/04/21 09:29:13;;;;;;;;;20.50;18.75;;;;;;;;5054459;28;46721;-73
2022/04/21 09:31:40;;;;;;;;;29.00;29.00;;;;;;;;5053908;28;45454;-73
2022/04/21 09:34:05;;;;;;;;;16.25;15.25;;;;;;;;5052848;28;45336;-71
2022/04/21 09:36:31;;;;;;;;;12.75;11.00;;;;;;;;5038855;28;45375;-72
2022/04/21 09:39:01;;;;;;;;;12.25;12.25;;;;;;;;5052810;28;45990;-71
2022/04/21 09:41:30;;;;;;;;;14.50;13.75;;;;;;;;5052978;28;45309;-72
2022/04/21 09:46:07;;;;;;;;;15.50;13.75;;;;;;;;5055050;28;45542;-73
2022/04/21 09:46:50;;;;;;;;;15.25;15.25;;;;;;;;5053798;28;45426;-72
2022/04/21 09:49:32;;;;;;;;;20.00;18.00;;;;;;;;5052887;28;45448;-72
2022/04/21 09:51:57;;;;;;;;;22.25;21.00;;;;;;;;5052494;28;47257;-71
2022/04/21 09:54:27;;;;;;;;;16.25;16.25;;;;;;;;5052670;28;45542;-72
2022/04/21 09:56:53;;;;;;;;;17.50;13.75;;;;;;;;5052925;28;45293;-70
2022/04/21 09:59:19;;;;;;;;;28.00;27.25;;;;;;;;5052643;28;45543;-71
2022/04/21 10:01:44;;;;;;;;;41.75;35.25;;;;;;;;5040653;28;45352;-72
2022/04/21 10:04:11;;;;;;;;;25.25;24.25;;;;;;;;5052019;28;45441;-72
2022/04/21 10:06:41;;;;;;;;;13.75;13.75;;;;;;;;5051795;28;45445;-72
2022/04/21 10:09:09;;;;;;;;;13.75;11.50;;;;;;;;5051199;28;45476;-70
2022/04/21 10:11:38;;;;;;;;;16.50;14.75;;;;;;;;5036669;28;45384;-72
2022/04/21 10:14:04;;;;;;;;;16.25;16.25;;;;;;;;5054396;28;45490;-72
2022/04/21 10:16:29;;;;;;;;;14.75;12.50;;;;;;;;5051205;28;45414;-72
2022/04/21 10:18:55;;;;;;;;;54.00;44.25;;;;;;;;5051714;28;47119;-73
2022/04/21 10:21:39;;;;;;;;;26.50;22.50;;;;;;;;5051613;28;45442;-71
2022/04/21 10:24:05;;;;;;;;;15.50;13.00;;;;;;;;5052257;28;45380;-72
2022/04/21 10:26:36;;;;;;;;;18.25;15.00;;;;;;;;5052086;28;45643;-72
2022/04/21 10:29:11;;;;;;;;;13.00;13.00;;;;;;;;5049516;28;46406;-72
2022/04/21 10:31:45;;;;;;;;;39.25;35.25;;;;;;;;5050835;28;45212;-72
2022/04/21 10:34:10;;;;;;;;;15.00;13.75;;;;;;;;5051857;28;45403;-72
2022/04/21 10:36:37;;;;;;;;;14.25;14.25;;;;;;;;5051403;28;45442;-72
2022/04/21 10:39:20;;;;;;;;;34.75;30.25;;;;;;;;5051584;28;46242;-71
2022/04/21 10:41:46;;;;;;;;;36.50;32.25;;;;;;;;5037373;28;45426;-72
2022/04/21 10:44:15;;;;;;;;;12.00;12.00;;;;;;;;5053021;28;45484;-72
2022/04/21 10:46:40;;;;;;;;;18.00;14.75;;;;;;;;5052395;28;45776;-70
2022/04/21 10:49:05;;;;;;;;;14.50;13.50;;;;;;;;5051246;28;45425;-72
2022/04/21 10:57:31;;;;;;;;;13.75;13.75;;;;;;;;5051800;28;45448;-72
2022/04/21 11:00:05;;;;;;;;;11.75;11.50;;;;;;;;5051495;28;46174;-73
2022/04/21 11:02:56;;;;;;;;;11.00;8.50;;;;;;;;5051523;28;45489;-73
2022/04/21 11:05:22;;;;;;;;;19.50;19.50;;;;;;;;5059451;28;45264;-72
2022/04/21 11:07:51;;;;;;;;;36.00;26.75;;;;;;;;5053090;28;45276;-73
2022/04/21 11:10:25;;;;;;;;;10.25;10.25;;;;;;;;5051228;28;45285;-72
2022/04/21 11:12:50;;;;;;;;;14.25;12.00;;;;;;;;5051016;28;45679;-72
2022/04/21 11:15:28;;;;;;;;;18.00;15.50;;;;;;;;5051157;28;45488;-73
2022/04/21 11:18:01;;;;;;;;;16.75;15.00;;;;;;;;5051025;28;45357;-72
2022/04/21 11:20:27;;;;;;;;;13.50;13.50;;;;;;;;5051324;28;45306;-72
2022/04/21 11:22:52;;;;;;;;;10.25;9.75;;;;;;;;5053518;28;45374;-73
2022/04/21 11:25:17;;;;;;;;;11.25;9.25;;;;;;;;5051422;28;45454;-73
2022/04/21 11:27:45;;;;;;;;;13.50;12.75;;;;;;;;5050717;28;45449;-72
2022/04/21 11:30:11;;;;;;;;;13.75;13.75;;;;;;;;5050905;28;47176;-72
2022/04/21 11:32:37;;;;;;;;;12.50;11.75;;;;;;;;5050790;28;45589;-73
2022/04/21 11:35:12;;;;;;;;;13.50;11.25;;;;;;;;5052794;28;45364;-73
2022/04/21 11:38:09;;;;;;;;;13.50;11.25;;;;;;;;5050729;28;45315;-73
2022/04/21 11:40:38;;;;;;;;;10.00;9.00;;;;;;;;4981428;28;45424;-72
2022/04/21 11:43:05;;;;;;;;;10.25;9.25;;;;;;;;4981458;28;45349;-73
2022/04/21 11:45:34;;;;;;;;;15.00;12.00;;;;;;;;4984994;28;45279;-72
2022/04/21 11:47:59;;;;;;;;;7.25;6.00;;;;;;;;4986029;28;45436;-72
2022/04/21 11:50:28;;;;;;;;;10.25;9.50;;;;;;;;4989692;28;45403;-71
2022/04/21 11:52:55;;;;;;;;;12.00;12.00;;;;;;;;4988980;28;45503;-72
2022/04/21 11:55:21;;;;;;;;;15.00;14.00;;;;;;;;4984985;28;50506;-72
2022/04/21 11:57:47;;;;;;;;;12.75;12.75;;;;;;;;4985039;28;45356;-72
2022/04/21 12:00:15;;;;;;;;;10.25;9.25;;;;;;;;4985012;28;46444;-72
2022/04/21 12:08:11;;;;;;;;;12.00;12.00;;;;;;;;4986563;28;45301;-72
2022/04/21 12:10:36;;;;;;;;;9.00;8.25;;;;;;;;4978274;28;47866;-71
2022/04/21 12:13:02;;;;;;;;;11.50;11.00;;;;;;;;4981252;28;45498;-72
2022/04/21 12:15:28;;;;;;;;;16.00;15.75;;;;;;;;4997436;28;45528;-71
2022/04/21 12:18:00;;;;;;;;;10.25;8.75;;;;;;;;5054037;28;45381;-72
2022/04/21 12:20:26;;;;;;;;;43.75;36.25;;;;;;;;5053772;27;46881;-72
2022/04/21 12:22:52;;;;;;;;;10.00;10.00;;;;;;;;5056056;28;45423;-73
2022/04/21 12:25:17;;;;;;;;;10.00;9.25;;;;;;;;5054641;28;45481;-72
2022/04/21 12:27:44;;;;;;;;;9.50;8.50;;;;;;;;5054265;28;45491;-72
2022/04/21 12:30:11;;;;;;;;;12.25;10.75;;;;;;;;5054132;28;46414;-72
2022/04/21 12:32:40;;;;;;;;;11.25;11.25;;;;;;;;5054046;28;45557;-72
2022/04/21 12:35:06;;;;;;;;;11.50;9.75;;;;;;;;5055703;28;45406;-72
2022/04/21 12:37:42;;;;;;;;;11.50;10.00;;;;;;;;5053862;28;45404;-72
2022/04/21 12:40:08;;;;;;;;;12.00;9.75;;;;;;;;5053408;28;46435;-72
2022/04/21 12:42:34;;;;;;;;;10.00;10.00;;;;;;;;5053822;28;45474;-72
2022/04/21 12:45:00;;;;;;;;;9.50;8.00;;;;;;;;5053566;28;45449;-72
2022/04/21 12:47:25;;;;;;;;;12.75;10.75;;;;;;;;5054318;28;45430;-72
2022/04/21 12:49:53;;;;;;;;;10.00;10.00;;;;;;;;5055377;28;46119;-71
2022/04/21 12:52:39;;;;;;;;;10.25;8.25;;;;;;;;5053532;28;46508;-71
2022/04/21 12:55:06;;;;;;;;;11.00;10.75;;;;;;;;5053016;28;45491;-73
2022/04/21 12:57:31;;;;;;;;;14.25;11.25;;;;;;;;5053988;28;45451;-72
2022/04/21 12:59:56;;;;;;;;;10.75;10.75;;;;;;;;5053152;28;46500;-72
2022/04/21 13:02:22;;;;;;;;;11.00;11.00;;;;;;;;5054061;28;45546;-72
2022/04/21 13:04:48;;;;;;;;;12.00;9.75;;;;;;;;5056200;28;45444;-73
2022/04/21 13:07:13;;;;;;;;;10.25;10.25;;;;;;;;5054005;28;45515;-72
2022/04/21 13:09:38;;;;;;;;;10.75;9.75;;;;;;;;5053410;28;45438;-72
2022/04/21 13:12:04;;;;;;;;;11.50;10.75;;;;;;;;5053640;28;45732;-72
2022/04/21 13:14:29;;;;;;;;;9.75;9.75;;;;;;;;5053301;28;45473;-72
2022/04/21 13:16:54;;;;;;;;;7.75;7.50;;;;;;;;5055273;28;45479;-72
2022/04/21 13:19:19;;;;;;;;;10.25;9.50;;;;;;;;5053306;28;47040;-73
2022/04/21 13:21:55;;;;;;;;;9.50;8.00;;;;;;;;5052783;28;45244;-72
2022/04/21 13:24:20;;;;;;;;;8.75;8.50;;;;;;;;5052745;28;45506;-72
2022/04/21 13:26:45;;;;;;;;;9.75;9.75;;;;;;;;5052448;28;45884;-71
2022/04/21 13:29:11;;;;;;;;;8.25;6.50;;;;;;;;5052923;28;46199;-72
2022/04/21 13:34:20;;;;;;;;;9.50;8.50;;;;;;;;5052631;28;45580;-72
2022/04/21 13:36:45;;;;;;;;;9.25;8.25;;;;;;;;5052261;28;45461;-72
2022/04/21 13:39:11;;;;;;;;;7.50;7.50;;;;;;;;5052411;28;45477;-73
2022/04/21 13:41:36;;;;;;;;;7.25;7.25;;;;;;;;5053204;28;45372;-72
2022/04/21 13:44:01;;;;;;;;;7.75;7.25;;;;;;;;5054381;28;45348;-72
2022/04/21 13:46:27;;;;;;;;;10.25;10.00;;;;;;;;5051765;28;45131;-72
2022/04/21 13:48:52;;;;;;;;;8.50;8.00;;;;;;;;5052775;28;46159;-72
2022/04/21 13:51:17;;;;;;;;;6.00;5.50;;;;;;;;5052223;28;45285;-72
2022/04/21 13:53:42;;;;;;;;;6.50;6.50;;;;;;;;5052626;28;45313;-72
2022/04/21 13:56:08;;;;;;;;;6.25;6.25;;;;;;;;5054577;28;45387;-72
2022/04/21 13:58:34;;;;;;;;;5.25;5.25;;;;;;;;5052285;28;47241;-72
2022/04/21 14:00:59;;;;;;;;;8.25;7.25;;;;;;;;5052299;28;45753;-72
2022/04/21 14:03:24;;;;;;;;;7.00;7.00;;;;;;;;5052652;28;45390;-72
2022/04/21 14:05:49;;;;;;;;;6.25;5.50;;;;;;;;5051996;28;45521;-72
2022/04/21 14:08:15;;;;;;;;;6.50;6.50;;;;;;;;5053472;28;47111;-72
2022/04/21 14:10:41;;;;;;;;;6.50;6.50;;;;;;;;5053474;28;45402;-72
2022/04/21 14:13:06;;;;;;;;;6.75;6.75;;;;;;;;5051849;28;45414;-72
2022/04/21 14:15:32;;;;;;;;;22.00;21.00;;;;;;;;5052621;28;45345;-72
2022/04/21 14:17:57;;;;;;;;;8.50;6.25;;;;;;;;5052466;28;46377;-71
2022/04/21 14:20:23;;;;;;;;;6.00;6.00;;;;;;;;5052778;28;45293;-72
2022/04/21 14:22:48;;;;;;;;;6.00;4.25;;;;;;;;5054925;28;45390;-73
2022/04/21 14:25:14;;;;;;;;;7.50;5.00;;;;;;;;5051998;28;45421;-72
2022/04/21 14:27:39;;;;;;;;;6.00;3.50;;;;;;;;5051823;28;46305;-72
2022/04/21 14:30:06;;;;;;;;;4.75;3.50;;;;;;;;5034552;28;45365;-73
2022/04/21 14:32:31;;;;;;;;;4.00;3.00;;;;;;;;5052984;28;45467;-81
2022/04/21 14:34:57;;;;;;;;;3.50;3.50;;;;;;;;5054562;28;45414;-83
2022/04/21 14:45:34;;;;;;;;;6.25;5.25;;;;;;;;5051508;28;45494;-79
2022/04/21 14:47:59;;;;;;;;;3.00;3.00;;;;;;;;5053327;28;45415;-85
2022/04/21 14:50:25;;;;;;;;;4.50;2.75;;;;;;;;5053969;28;45405;-86
2022/04/21 14:52:51;;;;;;;;;5.25;4.00;;;;;;;;5047977;28;45582;-85
2022/04/21 14:55:16;;;;;;;;;5.50;5.00;;;;;;;;5055463;28;45602;-85
2022/04/21 14:57:41;;;;;;;;;3.50;3.50;;;;;;;;5053841;28;47517;-85
2022/04/21 15:00:07;;;;;;;;;4.25;4.25;;;;;;;;5048622;28;45978;-84
2022/04/21 15:02:32;;;;;;;;;2.50;2.50;;;;;;;;5052820;28;45356;-84
2022/04/21 15:04:58;;;;;;;;;5.25;5.25;;;;;;;;5054372;28;45216;-84
2022/04/21 15:07:23;;;;;;;;;5.50;4.00;;;;;;;;5052241;28;45453;-81
2022/04/21 15:09:48;;;;;;;;;5.25;4.25;;;;;;;;5051860;28;45377;-78
2022/04/21 15:12:13;;;;;;;;;2.50;2.50;;;;;;;;5051825;28;45442;-81
2022/04/21 15:14:39;;;;;;;;;8.25;3.50;;;;;;;;5051966;28;45420;-82
2022/04/21 15:17:04;;;;;;;;;5.25;4.50;;;;;;;;5040276;28;46432;-82
2022/04/21 15:19:29;;;;;;;;;5.00;4.50;;;;;;;;5056263;28;45467;-83
2022/04/21 15:21:54;;;;;;;;;23.50;23.50;;;;;;;;5057715;28;45272;-84